岡山空港の過去48時間の天気

岡山空港 (Okayama)

現在時刻: 4/26 20:15 JST (4/26 11:15 UTC) 以下の時間は現地時間です。

過去48時間のMETAR気象情報
時間 風向 風速(m/s) 視程 気温(℃) 湿度(%) 気圧(hPa) 天気現象
26 20:00 不定 1 10km以上 15 59 1012
26 19:00 不定 1 10km以上 16 55 1012
26 18:00 南南東 2 10km以上 18 52 1012
26 17:00 3 10km以上 20 46 1012
26 16:00 不定 2 10km以上 20 43 1012
26 15:00 不定 2 10km以上 21 43 1012
26 14:00 西南西 2 10km以上 20 46 1012
26 13:00 不定 2 10km以上 19 46 1013
26 12:00 不定 2 10km以上 17 52 1013
26 11:00 不定 1 10km以上 16 51 1014
26 10:00 北北西 2 10km以上 15 63 1014
26 09:00 不定 2 10km以上 14 67 1014
26 08:00 不定 1 10km以上 12 71 1014
26 07:00 北西 2 10km以上 12 77 1014
26 06:15 北西 2 10km以上 9 87 1013
25 21:00 不定 1 10km以上 11 76 1011
25 20:00 不定 1 10km以上 11 76 1010
25 19:00 2 10km以上 12 77 1010
25 18:00 北西 2 10km以上 13 72 1009
25 17:00 北西 3 10km以上 13 72 1009
25 16:00 3 10km以上 14 77 1008
25 15:00 3 10km以上 15 72 1008
25 14:00 4 10km以上 16 68 1007
25 13:00 4 10km以上 15 77 1008
25 12:00 西北西 5 10km以上 16 68 1008
25 11:00 北西 4 10km以上 16 68 1007
25 10:00 北西 3 10km以上 16 72 1007
25 09:00 3 10km以上 15 77 1006
25 08:00 北西 3 10km以上 14 82 1006
25 07:00 西 3 10km以上 14 77 1005
25 06:15 西北西 3 10km以上 13 82 1004
24 21:00 4 3,500m 17 94 1004 しゅう雨 もや 散在した霧
24 20:49 3 3,000m 17 94 1004 しゅう雨 もや 散在した霧
24 20:20 東北東 2 2,500m 16 100 1004 しゅう雨 もや 散在した霧
RJOB 261100Z VRB02KT 9999 FEW030 BKN/// 15/07 Q1012
RJOB 261000Z VRB02KT 9999 FEW030 BKN/// 16/07 Q1012
RJOB 260900Z 16004KT 9999 FEW030 BKN/// 18/08 Q1012
RJOB 260800Z 19005KT 100V230 9999 FEW035 BKN/// 20/08 Q1012
RJOB 260700Z VRB03KT 9999 FEW035 BKN/// 20/07 Q1012
RJOB 260600Z VRB03KT 9999 FEW035 BKN/// 21/08 Q1012
RJOB 260500Z 25004KT 170V310 9999 FEW030 BKN/// 20/08 Q1012
RJOB 260400Z VRB03KT 9999 FEW030 BKN/// 19/07 Q1013
RJOB 260300Z VRB04KT 9999 FEW030 BKN/// 17/07 Q1013
RJOB 260200Z VRB02KT 9999 FEW025 BKN/// 16/06 Q1014
RJOB 260100Z 33004KT 280V030 9999 FEW025 BKN/// 15/08 Q1014
RJOB 260000Z VRB04KT 9999 FEW020 SCT/// 14/08 Q1014
RJOB 252300Z VRB02KT 9999 FEW020 SCT/// 12/07 Q1014
RJOB 252200Z 32004KT 9999 FEW020 SCT/// 12/08 Q1014
RJOB 252115Z 32004KT 9999 FEW020 SCT030 09/07 Q1013 RMK 1CU020 3CU030 A2994
RJOB 251200Z VRB02KT 9999 FEW015 SCT030 11/07 Q1011
RJOB 251100Z VRB01KT 9999 FEW015 BKN030 11/07 Q1010
RJOB 251000Z 01004KT 260V040 9999 FEW015 BKN030 12/08 Q1010
RJOB 250900Z 32003KT 270V020 9999 FEW015 SCT030 BKN/// 13/08 Q1009
RJOB 250800Z 31006KT 260V360 9999 FEW015 BKN030 13/08 Q1009
RJOB 250700Z 36006KT 300V040 9999 FEW015 BKN030 14/10 Q1008
RJOB 250600Z 36006KT 300V040 9999 FEW015 SCT025 BKN035 15/10 Q1008
RJOB 250500Z 35008KT 280V040 9999 FEW020 BKN035 16/10 Q1007
RJOB 250400Z 01008KT 320V040 9999 FEW015 SCT025 BKN035 15/11 Q1008
RJOB 250300Z 30009KT 260V360 9999 FEW020 BKN030 16/10 Q1008
RJOB 250200Z 32007KT 260V040 9999 FEW015 BKN020 BKN030 16/10 Q1007
RJOB 250100Z 32006KT 260V040 9999 FEW015 BKN025 16/11 Q1007
RJOB 250000Z 36006KT 300V050 9999 FEW015 BKN020 15/11 Q1006
RJOB 242300Z 31006KT 270V340 9999 FEW015 BKN025 BKN090 14/11 Q1006
RJOB 242200Z 28005KT 240V330 9999 FEW003 SCT015 BKN080 14/10 Q1005
RJOB 242115Z 30005KT 250V350 9999 FEW015 BKN080 13/10 Q1004 RMK 2CU015 5AC080 A2966
RJOB 241200Z 35007KT 3500 SHRA BR BCFG FEW000 SCT005 BKN030 17/16 Q1004
RJOB 241149Z 35006KT 310V020 3000 SHRA BR BCFG FEW000 BKN005 BKN030 17/16 Q1004 RMK 1ST000 5ST005 7CU030 A2966 FG NE-E AND SW
RJOB 241120Z 06004KT 2500 SHRA BR BCFG FEW000 SCT015 BKN025 16/16 Q1004 RMK 1ST000 3CU015 5CU025 A2966 FG NE-E AND SW